Terminal Aerodrome Forecast
Issued by NWS

Current Version | Previous Version | Text Only | Print | Product List | Glossary On
Versions: 1 2 3 4 5 6 7 8 9 10 11 12 13 14 15 16 17 18 19
000
FTUS44 KLZK 280910 AAA
TAFPBF
TAF AMD
KPBF 280910Z 2809/0106 16006KT P6SM OVC007 WS020/20035KT
     FM281700 20008G18KT P6SM VCSH BKN025 OVC050
     FM282000 20010G18KT P6SM -RA VCTS SCT020CB OVC050 PROB30
      2820/0102 4SM TSRA BKN025CB OVC040=

USA.gov is the U.S. government's official web portal to all federal, state and local government web resources and services.